sensor_id;sensor_type;location;lat;lon;timestamp;P1;durP1;ratioP1;P2;durP2;ratioP2
11305;SDS011;5708;50.660;6.778;2022-10-26T00:01:18;6.53;;;2.38;;
11305;SDS011;5708;50.660;6.778;2022-10-26T00:03:44;7.50;;;2.28;;
11305;SDS011;5708;50.660;6.778;2022-10-26T00:06:11;7.30;;;2.50;;
11305;SDS011;5708;50.660;6.778;2022-10-26T00:08:40;7.25;;;2.80;;
11305;SDS011;5708;50.660;6.778;2022-10-26T00:11:06;8.65;;;2.40;;
11305;SDS011;5708;50.660;6.778;2022-10-26T00:13:32;10.15;;;2.15;;
11305;SDS011;5708;50.660;6.778;2022-10-26T00:15:57;5.57;;;2.15;;
11305;SDS011;5708;50.660;6.778;2022-10-26T00:18:22;5.47;;;2.10;;
11305;SDS011;5708;50.660;6.778;2022-10-26T00:20:48;7.88;;;2.15;;
11305;SDS011;5708;50.660;6.778;2022-10-26T00:23:14;5.75;;;2.00;;
11305;SDS011;5708;50.660;6.778;2022-10-26T00:25:39;5.70;;;2.15;;
11305;SDS011;5708;50.660;6.778;2022-10-26T00:28:04;8.10;;;1.90;;
11305;SDS011;5708;50.660;6.778;2022-10-26T00:30:30;6.78;;;1.95;;
11305;SDS011;5708;50.660;6.778;2022-10-26T00:32:55;8.13;;;2.53;;
11305;SDS011;5708;50.660;6.778;2022-10-26T00:35:20;6.30;;;1.90;;
11305;SDS011;5708;50.660;6.778;2022-10-26T00:37:45;7.00;;;1.95;;
11305;SDS011;5708;50.660;6.778;2022-10-26T00:40:11;4.35;;;1.60;;
11305;SDS011;5708;50.660;6.778;2022-10-26T00:42:36;5.35;;;1.85;;
11305;SDS011;5708;50.660;6.778;2022-10-26T00:45:15;8.20;;;1.83;;
11305;SDS011;5708;50.660;6.778;2022-10-26T00:47:44;8.23;;;1.77;;
11305;SDS011;5708;50.660;6.778;2022-10-26T00:50:25;5.88;;;2.03;;
11305;SDS011;5708;50.660;6.778;2022-10-26T00:52:54;6.50;;;2.17;;
11305;SDS011;5708;50.660;6.778;2022-10-26T00:55:23;4.95;;;1.90;;
11305;SDS011;5708;50.660;6.778;2022-10-26T00:57:51;8.88;;;2.40;;
11305;SDS011;5708;50.660;6.778;2022-10-26T01:00:17;9.45;;;2.08;;
11305;SDS011;5708;50.660;6.778;2022-10-26T01:02:43;7.32;;;2.20;;
11305;SDS011;5708;50.660;6.778;2022-10-26T01:05:09;7.32;;;2.10;;
11305;SDS011;5708;50.660;6.778;2022-10-26T01:07:35;5.18;;;1.98;;
11305;SDS011;5708;50.660;6.778;2022-10-26T01:10:01;5.68;;;2.10;;
11305;SDS011;5708;50.660;6.778;2022-10-26T01:12:26;10.40;;;2.15;;
11305;SDS011;5708;50.660;6.778;2022-10-26T01:14:51;7.65;;;2.38;;
11305;SDS011;5708;50.660;6.778;2022-10-26T01:17:26;7.85;;;2.13;;
11305;SDS011;5708;50.660;6.778;2022-10-26T01:22:50;8.38;;;2.20;;
11305;SDS011;5708;50.660;6.778;2022-10-26T01:28:38;7.25;;;2.33;;
11305;SDS011;5708;50.660;6.778;2022-10-26T01:31:27;6.03;;;1.67;;
11305;SDS011;5708;50.660;6.778;2022-10-26T01:34:02;9.40;;;2.00;;
11305;SDS011;5708;50.660;6.778;2022-10-26T01:36:43;8.50;;;1.80;;
11305;SDS011;5708;50.660;6.778;2022-10-26T01:39:51;7.07;;;1.52;;
11305;SDS011;5708;50.660;6.778;2022-10-26T01:42:18;12.75;;;1.60;;
11305;SDS011;5708;50.660;6.778;2022-10-26T01:44:47;4.20;;;1.10;;
11305;SDS011;5708;50.660;6.778;2022-10-26T01:47:16;5.88;;;1.40;;
11305;SDS011;5708;50.660;6.778;2022-10-26T01:49:49;4.45;;;1.33;;
11305;SDS011;5708;50.660;6.778;2022-10-26T01:52:18;6.25;;;1.23;;
11305;SDS011;5708;50.660;6.778;2022-10-26T01:54:43;6.28;;;1.73;;
11305;SDS011;5708;50.660;6.778;2022-10-26T01:57:10;5.72;;;1.50;;
11305;SDS011;5708;50.660;6.778;2022-10-26T02:05:30;7.30;;;1.90;;
11305;SDS011;5708;50.660;6.778;2022-10-26T02:13:31;11.13;;;2.45;;
11305;SDS011;5708;50.660;6.778;2022-10-26T02:16:17;5.03;;;1.60;;
11305;SDS011;5708;50.660;6.778;2022-10-26T02:21:23;4.57;;;1.30;;
11305;SDS011;5708;50.660;6.778;2022-10-26T02:23:52;5.45;;;1.30;;
11305;SDS011;5708;50.660;6.778;2022-10-26T02:26:21;5.65;;;1.30;;
11305;SDS011;5708;50.660;6.778;2022-10-26T02:28:48;5.97;;;1.60;;
11305;SDS011;5708;50.660;6.778;2022-10-26T02:31:15;6.15;;;1.33;;
11305;SDS011;5708;50.660;6.778;2022-10-26T02:33:48;6.35;;;1.25;;
11305;SDS011;5708;50.660;6.778;2022-10-26T02:36:28;3.42;;;1.20;;
11305;SDS011;5708;50.660;6.778;2022-10-26T02:38:55;6.10;;;1.30;;
11305;SDS011;5708;50.660;6.778;2022-10-26T02:41:21;7.75;;;1.45;;
11305;SDS011;5708;50.660;6.778;2022-10-26T02:43:52;5.38;;;1.42;;
11305;SDS011;5708;50.660;6.778;2022-10-26T02:46:20;7.85;;;1.33;;
11305;SDS011;5708;50.660;6.778;2022-10-26T02:48:47;3.42;;;1.35;;
11305;SDS011;5708;50.660;6.778;2022-10-26T02:53:48;5.22;;;1.23;;
11305;SDS011;5708;50.660;6.778;2022-10-26T02:56:19;7.32;;;1.25;;
11305;SDS011;5708;50.660;6.778;2022-10-26T02:58:48;5.18;;;1.13;;
11305;SDS011;5708;50.660;6.778;2022-10-26T03:01:15;6.35;;;1.38;;
11305;SDS011;5708;50.660;6.778;2022-10-26T03:03:41;4.80;;;1.20;;
11305;SDS011;5708;50.660;6.778;2022-10-26T03:06:06;5.32;;;1.33;;
11305;SDS011;5708;50.660;6.778;2022-10-26T03:08:31;4.55;;;1.00;;
11305;SDS011;5708;50.660;6.778;2022-10-26T03:10:57;9.65;;;1.30;;
11305;SDS011;5708;50.660;6.778;2022-10-26T03:13:22;4.45;;;1.38;;
11305;SDS011;5708;50.660;6.778;2022-10-26T03:15:47;5.97;;;1.05;;
11305;SDS011;5708;50.660;6.778;2022-10-26T03:18:13;5.20;;;1.30;;
11305;SDS011;5708;50.660;6.778;2022-10-26T03:20:38;3.30;;;1.20;;
11305;SDS011;5708;50.660;6.778;2022-10-26T03:23:03;3.92;;;1.23;;
11305;SDS011;5708;50.660;6.778;2022-10-26T03:25:29;3.20;;;1.10;;
11305;SDS011;5708;50.660;6.778;2022-10-26T03:27:55;4.65;;;1.30;;
11305;SDS011;5708;50.660;6.778;2022-10-26T03:30:24;5.30;;;1.33;;
11305;SDS011;5708;50.660;6.778;2022-10-26T03:32:50;5.50;;;1.00;;
11305;SDS011;5708;50.660;6.778;2022-10-26T03:35:15;5.03;;;1.17;;
11305;SDS011;5708;50.660;6.778;2022-10-26T03:37:41;4.82;;;1.10;;
11305;SDS011;5708;50.660;6.778;2022-10-26T03:40:06;4.57;;;1.30;;
11305;SDS011;5708;50.660;6.778;2022-10-26T03:42:32;3.72;;;1.45;;
11305;SDS011;5708;50.660;6.778;2022-10-26T03:44:59;3.47;;;1.00;;
11305;SDS011;5708;50.660;6.778;2022-10-26T03:47:25;5.63;;;1.27;;
11305;SDS011;5708;50.660;6.778;2022-10-26T03:49:50;5.47;;;1.20;;
11305;SDS011;5708;50.660;6.778;2022-10-26T03:52:15;4.88;;;1.02;;
11305;SDS011;5708;50.660;6.778;2022-10-26T03:54:41;3.95;;;1.20;;
11305;SDS011;5708;50.660;6.778;2022-10-26T03:57:06;4.70;;;1.23;;
11305;SDS011;5708;50.660;6.778;2022-10-26T03:59:31;4.60;;;1.00;;
11305;SDS011;5708;50.660;6.778;2022-10-26T04:01:57;5.57;;;1.10;;
11305;SDS011;5708;50.660;6.778;2022-10-26T04:04:22;4.35;;;1.60;;
11305;SDS011;5708;50.660;6.778;2022-10-26T04:06:48;7.13;;;1.23;;
11305;SDS011;5708;50.660;6.778;2022-10-26T04:09:13;8.63;;;1.30;;
11305;SDS011;5708;50.660;6.778;2022-10-26T04:11:38;4.97;;;1.20;;
11305;SDS011;5708;50.660;6.778;2022-10-26T04:14:04;4.43;;;1.30;;
11305;SDS011;5708;50.660;6.778;2022-10-26T04:16:29;6.95;;;1.60;;
11305;SDS011;5708;50.660;6.778;2022-10-26T04:18:54;5.03;;;1.50;;
11305;SDS011;5708;50.660;6.778;2022-10-26T04:21:20;3.78;;;1.40;;
11305;SDS011;5708;50.660;6.778;2022-10-26T04:23:45;7.43;;;1.85;;
11305;SDS011;5708;50.660;6.778;2022-10-26T04:26:10;8.98;;;1.52;;
11305;SDS011;5708;50.660;6.778;2022-10-26T04:28:36;15.82;;;1.83;;
11305;SDS011;5708;50.660;6.778;2022-10-26T04:31:01;7.85;;;2.30;;
11305;SDS011;5708;50.660;6.778;2022-10-26T04:33:26;12.55;;;1.75;;
11305;SDS011;5708;50.660;6.778;2022-10-26T04:35:56;6.10;;;1.60;;
11305;SDS011;5708;50.660;6.778;2022-10-26T04:38:23;5.75;;;1.88;;
11305;SDS011;5708;50.660;6.778;2022-10-26T04:40:49;5.00;;;1.40;;
11305;SDS011;5708;50.660;6.778;2022-10-26T04:43:14;7.22;;;1.55;;
11305;SDS011;5708;50.660;6.778;2022-10-26T04:45:40;4.43;;;1.60;;
11305;SDS011;5708;50.660;6.778;2022-10-26T04:48:06;4.72;;;1.80;;
11305;SDS011;5708;50.660;6.778;2022-10-26T04:50:33;6.97;;;1.67;;
11305;SDS011;5708;50.660;6.778;2022-10-26T04:52:59;4.88;;;1.52;;
11305;SDS011;5708;50.660;6.778;2022-10-26T04:55:25;6.18;;;1.85;;
11305;SDS011;5708;50.660;6.778;2022-10-26T04:57:51;8.30;;;2.03;;
11305;SDS011;5708;50.660;6.778;2022-10-26T05:00:16;10.27;;;1.85;;
11305;SDS011;5708;50.660;6.778;2022-10-26T05:02:42;5.40;;;2.00;;
11305;SDS011;5708;50.660;6.778;2022-10-26T05:05:07;6.28;;;2.10;;
11305;SDS011;5708;50.660;6.778;2022-10-26T05:07:33;7.35;;;1.77;;
11305;SDS011;5708;50.660;6.778;2022-10-26T05:09:58;8.00;;;1.83;;
11305;SDS011;5708;50.660;6.778;2022-10-26T05:12:23;11.25;;;2.53;;
11305;SDS011;5708;50.660;6.778;2022-10-26T05:14:49;4.55;;;1.77;;
11305;SDS011;5708;50.660;6.778;2022-10-26T05:17:14;7.13;;;1.92;;
11305;SDS011;5708;50.660;6.778;2022-10-26T05:19:40;5.10;;;2.00;;
11305;SDS011;5708;50.660;6.778;2022-10-26T05:22:05;9.25;;;1.90;;
11305;SDS011;5708;50.660;6.778;2022-10-26T05:24:31;10.32;;;2.00;;
11305;SDS011;5708;50.660;6.778;2022-10-26T05:26:56;5.47;;;1.70;;
11305;SDS011;5708;50.660;6.778;2022-10-26T05:29:21;6.18;;;2.20;;
11305;SDS011;5708;50.660;6.778;2022-10-26T05:31:47;7.80;;;1.80;;
11305;SDS011;5708;50.660;6.778;2022-10-26T05:34:12;6.55;;;1.88;;
11305;SDS011;5708;50.660;6.778;2022-10-26T05:36:38;7.00;;;1.80;;
11305;SDS011;5708;50.660;6.778;2022-10-26T05:39:03;4.90;;;1.70;;
11305;SDS011;5708;50.660;6.778;2022-10-26T05:41:28;9.02;;;1.70;;
11305;SDS011;5708;50.660;6.778;2022-10-26T05:43:54;8.35;;;1.60;;
11305;SDS011;5708;50.660;6.778;2022-10-26T05:46:19;6.75;;;1.67;;
11305;SDS011;5708;50.660;6.778;2022-10-26T05:48:44;8.00;;;1.92;;
11305;SDS011;5708;50.660;6.778;2022-10-26T05:51:10;4.43;;;1.67;;
11305;SDS011;5708;50.660;6.778;2022-10-26T05:53:36;8.73;;;2.00;;
11305;SDS011;5708;50.660;6.778;2022-10-26T05:56:02;5.82;;;1.70;;
11305;SDS011;5708;50.660;6.778;2022-10-26T05:58:32;7.88;;;1.98;;
11305;SDS011;5708;50.660;6.778;2022-10-26T06:01:03;7.53;;;1.60;;
11305;SDS011;5708;50.660;6.778;2022-10-26T06:06:07;4.32;;;1.35;;
11305;SDS011;5708;50.660;6.778;2022-10-26T06:08:36;3.42;;;1.30;;
11305;SDS011;5708;50.660;6.778;2022-10-26T06:11:01;5.45;;;1.92;;
11305;SDS011;5708;50.660;6.778;2022-10-26T06:13:27;4.15;;;1.50;;
11305;SDS011;5708;50.660;6.778;2022-10-26T06:24:21;5.32;;;2.08;;
11305;SDS011;5708;50.660;6.778;2022-10-26T06:27:04;6.88;;;1.90;;
11305;SDS011;5708;50.660;6.778;2022-10-26T06:32:21;5.43;;;2.40;;
11305;SDS011;5708;50.660;6.778;2022-10-26T06:34:49;5.68;;;1.90;;
11305;SDS011;5708;50.660;6.778;2022-10-26T06:37:17;10.68;;;2.00;;
11305;SDS011;5708;50.660;6.778;2022-10-26T06:39:47;5.38;;;2.10;;
11305;SDS011;5708;50.660;6.778;2022-10-26T06:42:13;5.93;;;2.03;;
11305;SDS011;5708;50.660;6.778;2022-10-26T06:44:39;5.57;;;1.80;;
11305;SDS011;5708;50.660;6.778;2022-10-26T06:47:13;7.10;;;1.98;;
11305;SDS011;5708;50.660;6.778;2022-10-26T06:55:01;6.53;;;1.90;;
11305;SDS011;5708;50.660;6.778;2022-10-26T06:57:31;5.50;;;2.00;;
11305;SDS011;5708;50.660;6.778;2022-10-26T07:00:01;4.55;;;1.80;;
11305;SDS011;5708;50.660;6.778;2022-10-26T07:02:31;3.72;;;1.40;;
11305;SDS011;5708;50.660;6.778;2022-10-26T07:04:56;4.57;;;1.40;;
11305;SDS011;5708;50.660;6.778;2022-10-26T07:07:22;6.13;;;1.63;;
11305;SDS011;5708;50.660;6.778;2022-10-26T07:09:49;5.70;;;1.77;;
11305;SDS011;5708;50.660;6.778;2022-10-26T07:12:15;12.00;;;3.78;;
11305;SDS011;5708;50.660;6.778;2022-10-26T07:14:41;7.80;;;3.10;;
11305;SDS011;5708;50.660;6.778;2022-10-26T07:17:07;13.00;;;2.92;;
11305;SDS011;5708;50.660;6.778;2022-10-26T07:19:33;8.82;;;2.22;;
11305;SDS011;5708;50.660;6.778;2022-10-26T07:21:58;9.63;;;2.92;;
11305;SDS011;5708;50.660;6.778;2022-10-26T07:24:24;10.23;;;3.15;;
11305;SDS011;5708;50.660;6.778;2022-10-26T07:26:52;8.13;;;2.60;;
11305;SDS011;5708;50.660;6.778;2022-10-26T07:29:17;8.32;;;2.30;;
11305;SDS011;5708;50.660;6.778;2022-10-26T07:31:43;5.50;;;1.83;;
11305;SDS011;5708;50.660;6.778;2022-10-26T07:34:08;8.95;;;1.90;;
11305;SDS011;5708;50.660;6.778;2022-10-26T07:36:34;6.68;;;1.77;;
11305;SDS011;5708;50.660;6.778;2022-10-26T07:39:03;6.47;;;1.50;;
11305;SDS011;5708;50.660;6.778;2022-10-26T07:41:29;7.15;;;2.40;;
11305;SDS011;5708;50.660;6.778;2022-10-26T07:43:54;7.97;;;2.47;;
11305;SDS011;5708;50.660;6.778;2022-10-26T07:46:19;10.07;;;4.45;;
11305;SDS011;5708;50.660;6.778;2022-10-26T07:48:45;13.73;;;4.50;;
11305;SDS011;5708;50.660;6.778;2022-10-26T07:51:10;8.73;;;2.65;;
11305;SDS011;5708;50.660;6.778;2022-10-26T07:53:36;8.02;;;2.22;;
11305;SDS011;5708;50.660;6.778;2022-10-26T07:56:01;7.22;;;1.98;;
11305;SDS011;5708;50.660;6.778;2022-10-26T07:58:27;9.10;;;1.80;;
11305;SDS011;5708;50.660;6.778;2022-10-26T08:00:52;4.93;;;1.50;;
11305;SDS011;5708;50.660;6.778;2022-10-26T08:03:18;5.97;;;1.60;;
11305;SDS011;5708;50.660;6.778;2022-10-26T08:05:44;5.40;;;1.40;;
11305;SDS011;5708;50.660;6.778;2022-10-26T08:08:11;7.85;;;1.52;;
11305;SDS011;5708;50.660;6.778;2022-10-26T08:10:40;6.78;;;1.80;;
11305;SDS011;5708;50.660;6.778;2022-10-26T08:13:06;9.10;;;1.92;;
11305;SDS011;5708;50.660;6.778;2022-10-26T08:15:32;8.95;;;1.60;;
11305;SDS011;5708;50.660;6.778;2022-10-26T08:17:57;5.50;;;1.55;;
11305;SDS011;5708;50.660;6.778;2022-10-26T08:20:22;5.63;;;1.45;;
11305;SDS011;5708;50.660;6.778;2022-10-26T08:22:48;6.53;;;1.83;;
11305;SDS011;5708;50.660;6.778;2022-10-26T08:25:13;9.70;;;1.80;;
11305;SDS011;5708;50.660;6.778;2022-10-26T08:27:38;8.10;;;2.08;;
11305;SDS011;5708;50.660;6.778;2022-10-26T08:30:04;7.43;;;2.00;;
11305;SDS011;5708;50.660;6.778;2022-10-26T08:32:30;7.30;;;1.63;;
11305;SDS011;5708;50.660;6.778;2022-10-26T08:34:55;6.80;;;1.73;;
11305;SDS011;5708;50.660;6.778;2022-10-26T08:37:20;6.10;;;1.92;;
11305;SDS011;5708;50.660;6.778;2022-10-26T08:39:46;6.00;;;1.80;;
11305;SDS011;5708;50.660;6.778;2022-10-26T08:42:20;9.93;;;1.90;;
11305;SDS011;5708;50.660;6.778;2022-10-26T08:44:50;6.80;;;1.50;;
11305;SDS011;5708;50.660;6.778;2022-10-26T08:47:24;5.88;;;1.65;;
11305;SDS011;5708;50.660;6.778;2022-10-26T08:49:57;7.40;;;1.75;;
11305;SDS011;5708;50.660;6.778;2022-10-26T08:52:28;9.23;;;1.90;;
11305;SDS011;5708;50.660;6.778;2022-10-26T08:55:17;5.82;;;1.73;;
11305;SDS011;5708;50.660;6.778;2022-10-26T08:57:43;8.13;;;1.70;;
11305;SDS011;5708;50.660;6.778;2022-10-26T09:02:48;13.77;;;2.45;;
11305;SDS011;5708;50.660;6.778;2022-10-26T09:05:14;6.40;;;2.10;;
11305;SDS011;5708;50.660;6.778;2022-10-26T09:10:23;8.93;;;2.10;;
11305;SDS011;5708;50.660;6.778;2022-10-26T09:23:56;9.13;;;2.03;;
11305;SDS011;5708;50.660;6.778;2022-10-26T09:29:13;7.97;;;2.15;;
11305;SDS011;5708;50.660;6.778;2022-10-26T09:31:40;7.18;;;2.20;;
11305;SDS011;5708;50.660;6.778;2022-10-26T09:34:07;5.28;;;2.00;;
11305;SDS011;5708;50.660;6.778;2022-10-26T09:36:40;9.35;;;2.13;;
11305;SDS011;5708;50.660;6.778;2022-10-26T09:39:11;4.60;;;1.52;;
11305;SDS011;5708;50.660;6.778;2022-10-26T09:41:52;7.25;;;1.63;;
11305;SDS011;5708;50.660;6.778;2022-10-26T09:44:30;4.72;;;1.60;;
11305;SDS011;5708;50.660;6.778;2022-10-26T09:47:04;11.98;;;2.20;;
11305;SDS011;5708;50.660;6.778;2022-10-26T09:49:36;5.80;;;2.10;;
11305;SDS011;5708;50.660;6.778;2022-10-26T09:52:08;9.95;;;1.50;;
11305;SDS011;5708;50.660;6.778;2022-10-26T09:54:33;7.65;;;2.03;;
11305;SDS011;5708;50.660;6.778;2022-10-26T09:56:59;6.45;;;1.85;;
11305;SDS011;5708;50.660;6.778;2022-10-26T09:59:26;4.38;;;1.40;;
11305;SDS011;5708;50.660;6.778;2022-10-26T10:01:51;6.85;;;2.13;;
11305;SDS011;5708;50.660;6.778;2022-10-26T10:04:19;5.72;;;1.40;;
11305;SDS011;5708;50.660;6.778;2022-10-26T10:06:49;8.02;;;2.00;;
11305;SDS011;5708;50.660;6.778;2022-10-26T10:09:27;9.20;;;2.00;;
11305;SDS011;5708;50.660;6.778;2022-10-26T10:11:56;6.88;;;1.60;;
11305;SDS011;5708;50.660;6.778;2022-10-26T10:17:18;6.13;;;1.75;;
11305;SDS011;5708;50.660;6.778;2022-10-26T10:19:45;8.95;;;1.83;;
11305;SDS011;5708;50.660;6.778;2022-10-26T10:22:11;4.13;;;1.58;;
11305;SDS011;5708;50.660;6.778;2022-10-26T10:24:52;3.80;;;1.38;;
11305;SDS011;5708;50.660;6.778;2022-10-26T10:27:21;5.45;;;1.58;;
11305;SDS011;5708;50.660;6.778;2022-10-26T10:29:51;6.70;;;1.80;;
11305;SDS011;5708;50.660;6.778;2022-10-26T10:32:26;6.47;;;1.55;;
11305;SDS011;5708;50.660;6.778;2022-10-26T10:34:56;4.22;;;1.65;;
11305;SDS011;5708;50.660;6.778;2022-10-26T10:39:55;5.45;;;1.30;;
11305;SDS011;5708;50.660;6.778;2022-10-26T10:42:36;6.85;;;1.17;;
11305;SDS011;5708;50.660;6.778;2022-10-26T10:45:02;4.68;;;1.20;;
11305;SDS011;5708;50.660;6.778;2022-10-26T10:47:33;6.70;;;1.20;;
11305;SDS011;5708;50.660;6.778;2022-10-26T10:50:10;3.65;;;1.15;;
11305;SDS011;5708;50.660;6.778;2022-10-26T10:52:40;3.08;;;1.15;;
11305;SDS011;5708;50.660;6.778;2022-10-26T10:55:17;4.82;;;1.23;;
11305;SDS011;5708;50.660;6.778;2022-10-26T11:00:43;4.18;;;0.88;;
11305;SDS011;5708;50.660;6.778;2022-10-26T11:08:18;5.38;;;1.30;;
11305;SDS011;5708;50.660;6.778;2022-10-26T11:10:51;8.73;;;1.63;;
11305;SDS011;5708;50.660;6.778;2022-10-26T11:14:04;7.75;;;1.20;;
11305;SDS011;5708;50.660;6.778;2022-10-26T11:16:30;4.20;;;1.20;;
11305;SDS011;5708;50.660;6.778;2022-10-26T11:19:05;3.25;;;1.10;;
11305;SDS011;5708;50.660;6.778;2022-10-26T11:21:38;6.78;;;1.45;;
11305;SDS011;5708;50.660;6.778;2022-10-26T11:24:12;3.75;;;0.98;;
11305;SDS011;5708;50.660;6.778;2022-10-26T11:26:41;4.13;;;1.10;;
11305;SDS011;5708;50.660;6.778;2022-10-26T11:29:11;3.47;;;1.00;;
11305;SDS011;5708;50.660;6.778;2022-10-26T11:31:44;2.75;;;0.85;;
11305;SDS011;5708;50.660;6.778;2022-10-26T11:40:00;5.88;;;1.17;;
11305;SDS011;5708;50.660;6.778;2022-10-26T11:42:49;3.58;;;1.30;;
11305;SDS011;5708;50.660;6.778;2022-10-26T11:45:24;4.70;;;1.23;;
11305;SDS011;5708;50.660;6.778;2022-10-26T11:48:01;2.92;;;1.00;;
11305;SDS011;5708;50.660;6.778;2022-10-26T11:50:35;2.50;;;0.77;;
11305;SDS011;5708;50.660;6.778;2022-10-26T11:53:11;3.03;;;1.20;;
11305;SDS011;5708;50.660;6.778;2022-10-26T11:55:41;5.40;;;1.08;;
11305;SDS011;5708;50.660;6.778;2022-10-26T11:58:11;6.38;;;1.55;;
11305;SDS011;5708;50.660;6.778;2022-10-26T12:01:19;5.97;;;2.40;;
11305;SDS011;5708;50.660;6.778;2022-10-26T12:03:29;14.70;;;3.00;;
11305;SDS011;5708;50.660;6.778;2022-10-26T12:05:57;5.43;;;1.40;;
11305;SDS011;5708;50.660;6.778;2022-10-26T12:11:06;4.75;;;1.33;;
11305;SDS011;5708;50.660;6.778;2022-10-26T12:13:49;3.53;;;1.00;;
11305;SDS011;5708;50.660;6.778;2022-10-26T12:19:11;5.53;;;1.20;;
11305;SDS011;5708;50.660;6.778;2022-10-26T12:21:43;4.93;;;1.17;;
11305;SDS011;5708;50.660;6.778;2022-10-26T12:26:49;5.22;;;1.83;;
11305;SDS011;5708;50.660;6.778;2022-10-26T12:31:53;2.40;;;0.77;;
11305;SDS011;5708;50.660;6.778;2022-10-26T12:34:22;3.63;;;1.00;;
11305;SDS011;5708;50.660;6.778;2022-10-26T12:36:49;2.92;;;1.38;;
11305;SDS011;5708;50.660;6.778;2022-10-26T12:39:39;4.80;;;1.15;;
11305;SDS011;5708;50.660;6.778;2022-10-26T12:42:10;5.68;;;1.17;;
11305;SDS011;5708;50.660;6.778;2022-10-26T13:00:17;4.32;;;0.70;;
11305;SDS011;5708;50.660;6.778;2022-10-26T13:02:51;2.97;;;0.63;;
11305;SDS011;5708;50.660;6.778;2022-10-26T13:05:56;4.40;;;0.60;;
11305;SDS011;5708;50.660;6.778;2022-10-26T13:08:37;1.00;;;0.50;;
11305;SDS011;5708;50.660;6.778;2022-10-26T13:13:38;2.53;;;0.73;;
11305;SDS011;5708;50.660;6.778;2022-10-26T13:16:04;4.90;;;1.05;;
11305;SDS011;5708;50.660;6.778;2022-10-26T13:18:39;3.42;;;0.88;;
11305;SDS011;5708;50.660;6.778;2022-10-26T13:21:07;2.38;;;0.85;;
11305;SDS011;5708;50.660;6.778;2022-10-26T13:23:37;3.15;;;0.70;;
11305;SDS011;5708;50.660;6.778;2022-10-26T13:26:05;4.85;;;0.90;;
11305;SDS011;5708;50.660;6.778;2022-10-26T13:33:37;4.55;;;0.80;;
11305;SDS011;5708;50.660;6.778;2022-10-26T13:36:10;3.42;;;1.00;;
11305;SDS011;5708;50.660;6.778;2022-10-26T13:38:51;4.20;;;0.75;;
11305;SDS011;5708;50.660;6.778;2022-10-26T13:41:34;5.00;;;0.98;;
11305;SDS011;5708;50.660;6.778;2022-10-26T13:44:04;6.88;;;2.03;;
11305;SDS011;5708;50.660;6.778;2022-10-26T13:46:33;3.45;;;0.80;;
11305;SDS011;5708;50.660;6.778;2022-10-26T13:49:11;3.58;;;0.70;;
11305;SDS011;5708;50.660;6.778;2022-10-26T13:51:47;4.63;;;0.90;;
11305;SDS011;5708;50.660;6.778;2022-10-26T13:54:26;2.53;;;0.85;;
11305;SDS011;5708;50.660;6.778;2022-10-26T13:59:29;2.45;;;0.80;;
11305;SDS011;5708;50.660;6.778;2022-10-26T14:02:15;2.58;;;1.00;;
11305;SDS011;5708;50.660;6.778;2022-10-26T14:04:48;2.97;;;0.70;;
11305;SDS011;5708;50.660;6.778;2022-10-26T14:07:17;3.08;;;0.50;;
11305;SDS011;5708;50.660;6.778;2022-10-26T14:09:53;1.35;;;0.70;;
11305;SDS011;5708;50.660;6.778;2022-10-26T14:12:20;2.53;;;0.45;;
11305;SDS011;5708;50.660;6.778;2022-10-26T14:14:46;5.38;;;0.82;;
11305;SDS011;5708;50.660;6.778;2022-10-26T14:17:18;5.30;;;1.48;;
11305;SDS011;5708;50.660;6.778;2022-10-26T14:19:45;4.57;;;1.27;;
11305;SDS011;5708;50.660;6.778;2022-10-26T14:22:18;3.38;;;0.70;;
11305;SDS011;5708;50.660;6.778;2022-10-26T14:24:49;2.67;;;0.80;;
11305;SDS011;5708;50.660;6.778;2022-10-26T14:27:16;0.95;;;0.50;;
11305;SDS011;5708;50.660;6.778;2022-10-26T14:29:43;2.22;;;1.00;;
11305;SDS011;5708;50.660;6.778;2022-10-26T14:35:04;2.50;;;0.70;;
11305;SDS011;5708;50.660;6.778;2022-10-26T14:37:48;3.22;;;0.60;;
11305;SDS011;5708;50.660;6.778;2022-10-26T14:40:37;1.88;;;0.70;;
11305;SDS011;5708;50.660;6.778;2022-10-26T14:43:03;1.55;;;0.60;;
11305;SDS011;5708;50.660;6.778;2022-10-26T14:45:30;1.63;;;0.50;;
11305;SDS011;5708;50.660;6.778;2022-10-26T14:47:59;2.72;;;0.75;;
11305;SDS011;5708;50.660;6.778;2022-10-26T14:50:25;4.53;;;0.60;;
11305;SDS011;5708;50.660;6.778;2022-10-26T14:53:00;1.15;;;0.40;;
11305;SDS011;5708;50.660;6.778;2022-10-26T14:55:27;2.72;;;0.60;;
11305;SDS011;5708;50.660;6.778;2022-10-26T14:58:05;1.15;;;0.50;;
11305;SDS011;5708;50.660;6.778;2022-10-26T15:00:32;3.90;;;0.63;;
11305;SDS011;5708;50.660;6.778;2022-10-26T15:02:58;1.92;;;0.70;;
11305;SDS011;5708;50.660;6.778;2022-10-26T15:07:59;4.80;;;0.80;;
11305;SDS011;5708;50.660;6.778;2022-10-26T15:13:07;5.65;;;1.20;;
11305;SDS011;5708;50.660;6.778;2022-10-26T15:15:33;6.30;;;0.93;;
11305;SDS011;5708;50.660;6.778;2022-10-26T15:17:58;3.80;;;1.10;;
11305;SDS011;5708;50.660;6.778;2022-10-26T15:20:24;2.33;;;0.90;;
11305;SDS011;5708;50.660;6.778;2022-10-26T15:22:52;2.10;;;1.00;;
11305;SDS011;5708;50.660;6.778;2022-10-26T15:25:19;2.83;;;1.00;;
11305;SDS011;5708;50.660;6.778;2022-10-26T15:27:47;4.97;;;1.05;;
11305;SDS011;5708;50.660;6.778;2022-10-26T15:32:52;5.05;;;0.70;;
11305;SDS011;5708;50.660;6.778;2022-10-26T15:37:44;3.55;;;0.98;;
11305;SDS011;5708;50.660;6.778;2022-10-26T15:40:10;3.30;;;0.80;;
11305;SDS011;5708;50.660;6.778;2022-10-26T15:42:37;2.70;;;0.95;;
11305;SDS011;5708;50.660;6.778;2022-10-26T15:45:04;4.03;;;1.20;;
11305;SDS011;5708;50.660;6.778;2022-10-26T15:47:37;8.40;;;4.00;;
11305;SDS011;5708;50.660;6.778;2022-10-26T15:50:03;6.72;;;2.83;;
11305;SDS011;5708;50.660;6.778;2022-10-26T15:52:30;6.85;;;3.00;;
11305;SDS011;5708;50.660;6.778;2022-10-26T15:54:55;5.22;;;2.35;;
11305;SDS011;5708;50.660;6.778;2022-10-26T15:57:20;7.97;;;2.20;;
11305;SDS011;5708;50.660;6.778;2022-10-26T15:59:46;4.95;;;1.40;;
11305;SDS011;5708;50.660;6.778;2022-10-26T16:02:14;3.85;;;1.52;;
11305;SDS011;5708;50.660;6.778;2022-10-26T16:04:40;2.55;;;1.25;;
11305;SDS011;5708;50.660;6.778;2022-10-26T16:07:12;5.20;;;1.10;;
11305;SDS011;5708;50.660;6.778;2022-10-26T16:09:39;2.97;;;1.05;;
11305;SDS011;5708;50.660;6.778;2022-10-26T16:12:14;4.35;;;0.98;;
11305;SDS011;5708;50.660;6.778;2022-10-26T16:14:40;3.42;;;1.30;;
11305;SDS011;5708;50.660;6.778;2022-10-26T16:17:05;4.72;;;0.90;;
11305;SDS011;5708;50.660;6.778;2022-10-26T16:19:31;3.38;;;1.00;;
11305;SDS011;5708;50.660;6.778;2022-10-26T16:21:57;2.60;;;0.90;;
11305;SDS011;5708;50.660;6.778;2022-10-26T16:24:23;4.57;;;1.60;;
11305;SDS011;5708;50.660;6.778;2022-10-26T16:26:48;4.72;;;1.42;;
11305;SDS011;5708;50.660;6.778;2022-10-26T16:29:14;3.97;;;1.00;;
11305;SDS011;5708;50.660;6.778;2022-10-26T16:31:39;3.90;;;1.10;;
11305;SDS011;5708;50.660;6.778;2022-10-26T16:34:04;5.22;;;1.00;;
11305;SDS011;5708;50.660;6.778;2022-10-26T16:36:30;4.47;;;0.80;;
11305;SDS011;5708;50.660;6.778;2022-10-26T16:38:58;3.00;;;1.00;;
11305;SDS011;5708;50.660;6.778;2022-10-26T16:41:24;4.80;;;1.10;;
11305;SDS011;5708;50.660;6.778;2022-10-26T16:43:49;6.68;;;1.33;;
11305;SDS011;5708;50.660;6.778;2022-10-26T16:46:16;5.50;;;1.15;;
11305;SDS011;5708;50.660;6.778;2022-10-26T16:48:43;4.55;;;1.40;;
11305;SDS011;5708;50.660;6.778;2022-10-26T16:51:11;3.67;;;1.25;;
11305;SDS011;5708;50.660;6.778;2022-10-26T16:53:38;2.33;;;1.42;;
11305;SDS011;5708;50.660;6.778;2022-10-26T16:56:05;5.35;;;1.20;;
11305;SDS011;5708;50.660;6.778;2022-10-26T16:58:32;7.88;;;1.70;;
11305;SDS011;5708;50.660;6.778;2022-10-26T17:00:58;2.10;;;1.23;;
11305;SDS011;5708;50.660;6.778;2022-10-26T17:03:25;3.25;;;1.23;;
11305;SDS011;5708;50.660;6.778;2022-10-26T17:06:00;4.63;;;1.20;;
11305;SDS011;5708;50.660;6.778;2022-10-26T17:08:27;3.78;;;0.95;;
11305;SDS011;5708;50.660;6.778;2022-10-26T17:10:53;3.00;;;0.90;;
11305;SDS011;5708;50.660;6.778;2022-10-26T17:13:19;5.50;;;1.40;;
11305;SDS011;5708;50.660;6.778;2022-10-26T17:15:45;4.38;;;1.00;;
11305;SDS011;5708;50.660;6.778;2022-10-26T17:18:10;4.10;;;1.20;;
11305;SDS011;5708;50.660;6.778;2022-10-26T17:20:39;3.90;;;1.27;;